Toncontín International Airport
MHTG : now visible

Airfield :











YOU CAN JOIN US ON...

 
LOGIN :

Register | Disclaimer

   EN    FR    IT 

 









Legend :    VFR   Marginal VFR   IFR   Intensive IFR   Very Intensive IFR
Visi :
Ceiling :
>= 8 km
>= 3000ft
5 to 8 km
1000 to 3000 ft
1500m to 5 km
500 to 1000 ft
800 to 1500m
200 to 500 ft
< 800m
< 200 ft
Symbols :   Thunderstorms  Fog  Heavy snow  Heavy precipitations  Wind > 20 kt







- Airport Elevation : 3294 ft
- IATA code : TGU


MHTG - Toncontín International

CURRENT METAR :
  • 180200Z 18006KT 9999 FEW028 FEW030CB SCT200 22/18 Q1019 A3009 NOSIG

EXPIRED METARs :
  • 180100Z 18008KT 9999 FEW028TCU FEW030CB SCT200 23/18 Q1020 A3012 NOSIG
  • 180000Z 18010KT 9999 FEW028TCU FEW030CB SCT200 25/17 Q1019 A3009 NOSIG

TAF TAF MHTG
Valid from the 18 at 00:00 until the 19 at 00:00 UTC


172225Z 1800/1824 18004KT 6000 TSVCSH FEW030CB SCT032TCU TX30/1821Z TN17/1812Z
BECMG 1804/1806 36003KT 9999 NSW SCT026 BKN070
BECMG 1812/1814 SCT028 SCT080
TEMPO 1820/1824 07006KT 6000 -TSRA SCT028CB SCT030TCU
No reported NOTAMs for that airfield.



MET'MAP, your aeronautical weather chart ! - Copyright ORBIFLY December 2007 - Disclaimer

ORBIFLY MET'MAP TEAM :

Programming & Development : Alexandra Zaïnal
Concept & Development : Baudouin d'Aumeries
Co-Development & Prog : Marc-Olivier Méhu
Technical & hardware support : Manuel Goepfert

Contact : metmap@orbifly.com




SOURCES & CREDITS :

   NOAA       Earth
Advisory